createdAt,value
2023-06-10T00:01:44.350Z,96.70
2023-06-10T00:06:44.958Z,97.80
2023-06-10T00:11:43.625Z,99.30
2023-06-10T00:16:42.102Z,99.40
2023-06-10T00:21:41.404Z,99.90
2023-06-10T00:26:41.633Z,99.90
2023-06-10T00:31:40.426Z,99.90
2023-06-10T00:36:38.957Z,99.90
2023-06-10T00:41:37.287Z,99.90
2023-06-10T00:46:38.682Z,99.90
2023-06-10T00:51:37.515Z,99.90
2023-06-10T00:56:36.685Z,99.90
2023-06-10T01:01:38.974Z,99.90
2023-06-10T01:06:48.621Z,99.90
2023-06-10T01:11:52.636Z,99.90
2023-06-10T01:16:56.465Z,99.90
2023-06-10T01:21:57.368Z,99.90
2023-06-10T01:27:00.631Z,99.90
2023-06-10T01:32:06.231Z,99.90
2023-06-10T01:37:06.707Z,99.90
2023-06-10T01:42:07.661Z,99.90
2023-06-10T01:47:08.216Z,99.90
2023-06-10T01:52:09.173Z,99.90
2023-06-10T01:57:08.164Z,99.90
2023-06-10T02:02:06.894Z,99.90
2023-06-10T02:07:06.996Z,99.90
2023-06-10T02:12:08.432Z,99.90
2023-06-10T02:17:07.012Z,99.90
2023-06-10T02:22:06.495Z,99.90
2023-06-10T02:27:07.849Z,99.90
2023-06-10T02:32:08.339Z,99.90
2023-06-10T02:37:09.320Z,99.90
2023-06-10T02:42:09.747Z,99.90
2023-06-10T02:47:08.409Z,99.90
2023-06-10T02:52:09.572Z,99.90
2023-06-10T02:57:11.232Z,99.90
2023-06-10T03:02:09.393Z,99.90
2023-06-10T03:07:15.170Z,99.90
2023-06-10T03:12:14.938Z,99.90
2023-06-10T03:17:17.372Z,99.90
2023-06-10T03:22:18.715Z,99.90
2023-06-10T03:27:32.746Z,99.90
2023-06-10T03:32:34.902Z,99.90
2023-06-10T03:37:33.091Z,99.90
2023-06-10T03:42:33.385Z,99.90
2023-06-10T03:47:37.119Z,99.90
2023-06-10T03:52:38.376Z,99.90
2023-06-10T03:57:39.204Z,99.90
2023-06-10T04:02:37.804Z,99.90
2023-06-10T04:07:36.502Z,99.90
2023-06-10T04:12:34.837Z,99.90
2023-06-10T04:17:34.904Z,99.90
2023-06-10T04:22:33.468Z,99.90
2023-06-10T04:27:31.892Z,99.90
2023-06-10T04:32:30.559Z,99.90
2023-06-10T04:37:31.384Z,99.90
2023-06-10T04:42:29.839Z,99.90
2023-06-10T04:47:28.834Z,99.90
2023-06-10T04:52:27.190Z,99.90
2023-06-10T04:57:28.252Z,99.90
2023-06-10T05:02:26.429Z,99.90
2023-06-10T05:07:25.019Z,99.90
2023-06-10T05:12:23.542Z,99.90
2023-06-10T05:17:23.262Z,99.90
2023-06-10T05:22:21.512Z,99.90
2023-06-10T05:27:19.834Z,99.90
2023-06-10T05:32:17.923Z,99.90
2023-06-10T05:37:17.589Z,99.90
2023-06-10T05:42:15.889Z,99.90
2023-06-10T05:47:14.117Z,99.90
2023-06-10T05:52:12.156Z,99.90
2023-06-10T05:57:12.471Z,99.90
2023-06-10T06:02:10.945Z,99.90
2023-06-10T06:07:09.077Z,99.90
2023-06-10T06:12:08.626Z,99.90
2023-06-10T06:17:08.761Z,99.90
2023-06-10T06:22:07.128Z,99.90
2023-06-10T06:27:06.521Z,99.90
2023-06-10T06:32:04.997Z,99.90
2023-06-10T06:37:04.883Z,99.90
2023-06-10T06:42:06.862Z,99.90
2023-06-10T06:47:31.787Z,99.90
2023-06-10T06:52:32.052Z,99.90
2023-06-10T06:57:30.312Z,99.90
2023-06-10T07:02:28.568Z,99.90
2023-06-10T07:07:26.822Z,99.90
2023-06-10T07:12:26.599Z,99.90
2023-06-10T07:17:24.742Z,99.90
2023-06-10T07:22:23.148Z,99.90
2023-06-10T07:27:21.384Z,99.90
2023-06-10T07:32:23.312Z,99.90
2023-06-10T07:37:21.650Z,99.90
2023-06-10T07:42:19.885Z,99.90
2023-06-10T07:47:18.040Z,99.90
2023-06-10T07:52:17.941Z,99.90
2023-06-10T07:57:16.282Z,99.90
2023-06-10T08:02:14.355Z,99.90
2023-06-10T08:07:12.676Z,99.90
2023-06-10T08:12:12.981Z,99.90
2023-06-10T08:17:13.697Z,99.90
2023-06-10T08:22:11.992Z,99.90
2023-06-10T08:27:12.408Z,99.90
2023-06-10T08:32:10.882Z,99.90
2023-06-10T08:37:09.430Z,99.90
2023-06-10T08:42:21.818Z,99.90
2023-06-10T08:47:20.154Z,99.90
2023-06-10T08:52:20.264Z,99.90
2023-06-10T08:57:22.833Z,99.90
2023-06-10T09:02:22.057Z,99.90
2023-06-10T09:07:20.390Z,99.90
2023-06-10T09:12:19.926Z,99.90
2023-06-10T09:17:19.018Z,99.90
2023-06-10T09:22:17.371Z,99.90
2023-06-10T09:27:15.968Z,99.90
2023-06-10T09:32:15.811Z,98.60
2023-06-10T09:37:14.974Z,97.70
2023-06-10T09:42:20.257Z,97.20
2023-06-10T09:47:23.798Z,96.40
2023-06-10T09:52:25.327Z,95.80
2023-06-10T09:57:24.304Z,94.20
2023-06-10T10:02:24.033Z,94.80
2023-06-10T10:07:22.316Z,95.00
2023-06-10T10:12:20.990Z,95.20
2023-06-10T10:17:20.244Z,95.20
2023-06-10T10:22:26.549Z,95.50
2023-06-10T10:27:31.061Z,95.30
2023-06-10T10:32:34.762Z,95.00
2023-06-10T10:37:34.908Z,94.90
2023-06-10T10:42:34.389Z,94.40
2023-06-10T10:47:34.404Z,94.10
2023-06-10T10:52:53.766Z,94.30
2023-06-10T10:57:59.355Z,93.50
2023-06-10T11:03:03.620Z,93.40
2023-06-10T11:08:04.923Z,91.00
2023-06-10T11:13:08.398Z,90.40
2023-06-10T11:18:15.175Z,88.00
2023-06-10T11:23:27.821Z,87.20
2023-06-10T11:28:30.281Z,83.40
2023-06-10T11:33:29.141Z,81.20
2023-06-10T11:38:30.082Z,81.60
2023-06-10T11:43:28.433Z,81.70
2023-06-10T11:48:29.607Z,83.60
2023-06-10T11:53:29.558Z,78.90
2023-06-10T11:58:27.868Z,76.20
2023-06-10T12:03:27.141Z,74.60
2023-06-10T12:08:26.131Z,71.60
2023-06-10T12:13:26.180Z,70.60
2023-06-10T12:18:25.565Z,67.90
2023-06-10T12:23:24.116Z,66.80
2023-06-10T12:28:25.190Z,65.80
2023-06-10T12:33:24.052Z,67.10
2023-06-10T12:38:28.305Z,68.30
2023-06-10T12:43:28.105Z,65.00
2023-06-10T12:48:30.179Z,65.30
2023-06-10T12:53:29.406Z,64.90
2023-06-10T12:58:28.882Z,64.10
2023-06-10T13:03:27.587Z,66.50
2023-06-10T13:08:26.062Z,66.70
2023-06-10T13:18:41.571Z,66.00
2023-06-10T13:23:39.925Z,67.10
2023-06-10T13:28:38.206Z,66.80
2023-06-10T13:33:36.426Z,66.50
2023-06-10T13:38:36.050Z,65.00
2023-06-10T13:43:34.140Z,64.60
2023-06-10T13:48:32.396Z,65.20
2023-06-10T13:53:30.779Z,65.00
2023-06-10T13:58:30.373Z,67.00
2023-06-10T14:03:28.691Z,66.00
2023-06-10T14:08:27.026Z,67.50
2023-06-10T14:13:25.324Z,68.00
2023-06-10T14:18:24.922Z,70.20
2023-06-10T14:23:23.209Z,70.10
2023-06-10T14:28:21.260Z,69.90
2023-06-10T14:33:20.193Z,69.40
2023-06-10T14:38:20.091Z,69.50
2023-06-10T14:43:18.322Z,66.50
2023-06-10T14:48:16.842Z,64.90
2023-06-10T14:53:15.081Z,64.70
2023-06-10T14:58:14.727Z,64.00
2023-06-10T15:03:13.045Z,62.00
2023-06-10T15:08:12.499Z,61.90
2023-06-10T15:13:10.732Z,59.20
2023-06-10T15:18:10.266Z,60.40
2023-06-10T15:23:09.129Z,58.50
2023-06-10T15:28:07.361Z,58.10
2023-06-10T15:33:07.811Z,58.10
2023-06-10T15:38:07.559Z,58.80
2023-06-10T15:43:05.804Z,58.70
2023-06-10T15:48:04.264Z,58.60
2023-06-10T15:53:02.567Z,57.00
2023-06-10T15:58:04.979Z,56.10
2023-06-10T16:03:04.191Z,54.90
2023-06-10T16:08:03.367Z,55.40
2023-06-10T16:13:03.752Z,53.20
2023-06-10T16:18:02.099Z,51.90
2023-06-10T16:23:00.177Z,51.70
2023-06-10T16:27:58.692Z,50.90
2023-06-10T16:32:58.514Z,50.80
2023-06-10T16:37:56.768Z,50.50
2023-06-10T16:42:54.998Z,49.60
2023-06-10T16:47:53.250Z,49.40
2023-06-10T16:52:52.774Z,49.70
2023-06-10T16:57:50.863Z,50.20
2023-06-10T17:02:49.304Z,50.80
2023-06-10T17:07:48.450Z,50.70
2023-06-10T17:12:48.233Z,49.50
2023-06-10T17:17:46.573Z,50.10
2023-06-10T17:22:45.061Z,49.70
2023-06-10T17:27:43.356Z,49.00
2023-06-10T17:32:43.006Z,48.30
2023-06-10T17:37:41.306Z,49.10
2023-06-10T17:42:39.561Z,48.30
2023-06-10T17:47:37.864Z,48.60
2023-06-10T17:52:37.552Z,48.90
2023-06-10T17:57:35.809Z,48.60
2023-06-10T18:02:34.144Z,48.60
2023-06-10T18:07:32.720Z,48.70
2023-06-10T18:12:32.322Z,49.90
2023-06-10T18:17:30.678Z,49.40
2023-06-10T18:22:29.016Z,49.50
2023-06-10T18:27:27.344Z,49.80
2023-06-10T18:32:27.158Z,51.00
2023-06-10T18:37:25.596Z,50.20
2023-06-10T18:42:23.832Z,50.60
2023-06-10T18:47:21.922Z,51.20
2023-06-10T18:52:21.717Z,51.50
2023-06-10T18:57:19.944Z,52.10
2023-06-10T19:02:18.197Z,52.70
2023-06-10T19:07:18.352Z,53.20
2023-06-10T19:12:19.967Z,53.40
2023-06-10T19:17:18.310Z,54.30
2023-06-10T19:22:16.875Z,55.00
2023-06-10T19:27:15.143Z,55.70
2023-06-10T19:32:14.719Z,55.60
2023-06-10T19:37:13.016Z,56.70
2023-06-10T19:42:13.525Z,57.60
2023-06-10T19:47:15.070Z,58.50
2023-06-10T19:52:13.357Z,58.80
2023-06-10T19:57:11.600Z,60.60
2023-06-10T20:02:09.949Z,61.60
2023-06-10T20:07:09.501Z,62.00
2023-06-10T20:12:09.308Z,62.50
2023-06-10T20:17:07.922Z,63.00
2023-06-10T20:22:06.292Z,63.10
2023-06-10T20:27:06.999Z,63.50
2023-06-10T20:32:05.618Z,63.40
2023-06-10T20:37:04.557Z,63.90
2023-06-10T20:42:02.606Z,64.10
2023-06-10T20:47:02.412Z,63.80
2023-06-10T20:52:00.685Z,64.40
2023-06-10T20:56:58.973Z,64.10
2023-06-10T21:01:57.542Z,64.60
2023-06-10T21:06:57.215Z,63.70
2023-06-10T21:11:55.564Z,62.60
2023-06-10T21:16:53.628Z,62.80
2023-06-10T21:21:51.755Z,62.90
2023-06-10T21:26:51.443Z,62.40
2023-06-10T21:31:50.234Z,62.10
2023-06-10T21:36:48.393Z,63.20
2023-06-10T21:41:46.658Z,62.00
2023-06-10T21:46:46.291Z,61.70
2023-06-10T21:51:46.137Z,61.10
2023-06-10T21:56:47.971Z,61.20
2023-06-10T22:01:47.588Z,60.60
2023-06-10T22:06:46.323Z,60.40
2023-06-10T22:11:44.836Z,60.00
2023-06-10T22:16:43.226Z,59.50
2023-06-10T22:21:42.876Z,59.50
2023-06-10T22:26:52.263Z,59.50
2023-06-10T22:31:52.298Z,59.50
2023-06-10T22:36:51.753Z,59.10
2023-06-10T22:41:50.114Z,58.80
2023-06-10T22:46:48.339Z,58.50
2023-06-10T22:51:47.384Z,58.00
2023-06-10T22:56:47.054Z,58.00
2023-06-10T23:01:45.407Z,57.50
2023-06-10T23:06:43.896Z,57.50
2023-06-10T23:11:42.331Z,57.30
2023-06-10T23:16:46.910Z,56.50
2023-06-10T23:21:49.818Z,56.10
2023-06-10T23:26:49.295Z,56.00
2023-06-10T23:31:48.717Z,55.70
2023-06-10T23:36:47.898Z,55.70
2023-06-10T23:41:47.386Z,55.70
2023-06-10T23:46:45.655Z,55.80
2023-06-10T23:51:45.130Z,56.00
2023-06-10T23:56:43.443Z,56.10
